»·PEaware :: AAL234 KSLC-KASE

AAL234 :: KSLC-KASE

FLIGHT INFORMATION

Flight Status: Arrived
Operator:
American Airlines
More flights by this operator :: More flights under this callsign
Pilot: Peter H. (12565)
Aircraft: AIRBUS A320
(A320)
More flights by this aircraft type
Origin: KSLC Salt Lake City Intl
United States
Destination: KASE Aspen-Pitkin Co/Sardy
United States
More flights between these airports :: More routes between these airports
Route: +LEETZ6 EKR TRUEL DBL
File this flight plan on PilotEdge
Remarks:
Altitude:
(Current/Filed)
33,000ft
Speed:
(Current/Filed)
450kts
Departed: 05-May-18 04:08 PM
Arrived: 05-May-18 04:55 PM
Distance/Time
Traveled:
253nm/0:47
Distance/Time
To Go:
Arrived

Flight Plot

Page will automatically refresh every two minutes.

Flight plan parsing failed; only flown route is shown


Map Options




Map Legend


Flown Route
Filed Route
Departure Airport
Arrival Airport
Navaid (VOR, NDB)
Fix

Horizontal Profiles

Position Reports

Time Latitude Longitude Heading Altitude Ground
Speed
05-May-18 15:49 40.787356 -111.977796 269 4225ft 0kts
05-May-18 15:50 40.787356 -111.977796 269 4225ft 0kts
05-May-18 15:51 40.787356 -111.977796 269 4225ft 0kts
05-May-18 15:52 40.787356 -111.977796 269 4225ft 0kts
05-May-18 15:53 40.787356 -111.977796 269 4225ft 0kts
05-May-18 15:54 40.787356 -111.977796 269 4225ft 0kts
05-May-18 15:55 40.787356 -111.977796 269 4225ft 0kts
05-May-18 15:56 40.787356 -111.977796 269 4225ft 0kts
05-May-18 15:58 40.787356 -111.977796 269 4225ft 0kts
05-May-18 15:59 40.787356 -111.977796 269 4225ft 0kts
05-May-18 16:00 40.787359 -111.977167 269 4225ft 2kts
05-May-18 16:01 40.787038 -111.976728 358 4225ft 1kts
05-May-18 16:02 40.787012 -111.976726 355 4225ft 0kts
05-May-18 16:03 40.787012 -111.976726 355 4225ft 0kts
05-May-18 16:04 40.787641 -111.976796 355 4225ft 16kts
05-May-18 16:05 40.794553 -111.977622 355 4225ft 25kts
05-May-18 16:06 40.801310 -111.978418 354 4231ft 22kts
05-May-18 16:07 40.807314 -111.978270 60 4228ft 20kts
05-May-18 16:08 40.786850 -111.974277 174 4578ft 184kts
05-May-18 16:09 40.742762 -112.011340 272 7845ft 253kts
05-May-18 16:10 40.776971 -112.095382 317 11348ft 281kts
05-May-18 16:11 40.832528 -112.165200 317 15059ft 279kts
05-May-18 16:12 40.892283 -112.231513 341 17941ft 299kts
05-May-18 16:13 40.977985 -112.239267 11 20321ft 332kts
05-May-18 16:14 41.025161 -112.135261 79 22007ft 379kts
05-May-18 16:15 41.003867 -112.003333 112 23587ft 387kts
05-May-18 16:16 40.954214 -111.875654 123 25466ft 399kts
05-May-18 16:17 40.899021 -111.749296 122 27241ft 412kts
05-May-18 16:18 40.841990 -111.616393 114 28883ft 425kts
05-May-18 16:19 40.806978 -111.461847 106 29691ft 457kts
05-May-18 16:20 40.770479 -111.298282 107 30306ft 483kts
05-May-18 16:21 40.731218 -111.125439 107 31067ft 498kts
05-May-18 16:22 40.691530 -110.951832 107 31373ft 496kts
05-May-18 16:23 40.651636 -110.778838 107 31374ft 498kts
05-May-18 16:24 40.610961 -110.603809 107 31375ft 501kts
05-May-18 16:25 40.570081 -110.429203 107 31256ft 501kts
05-May-18 16:26 40.530830 -110.255685 103 31267ft 502kts
05-May-18 16:27 40.498821 -110.085526 103 31266ft 502kts
05-May-18 16:28 40.465847 -109.911963 103 31267ft 502kts
05-May-18 16:29 40.432099 -109.735877 103 31267ft 502kts
05-May-18 16:30 40.398151 -109.560306 103 31266ft 502kts
05-May-18 16:31 40.363563 -109.383028 103 31264ft 513kts
05-May-18 16:32 40.329244 -109.208633 104 31265ft 511kts
05-May-18 16:33 40.293672 -109.029407 104 31265ft 511kts
05-May-18 16:34 40.258726 -108.854890 104 31266ft 511kts
05-May-18 16:35 40.223135 -108.678675 104 31266ft 511kts
05-May-18 16:36 40.187113 -108.501820 102 31266ft 503kts
05-May-18 16:37 40.151642 -108.329196 104 31329ft 511kts
05-May-18 16:38 40.114875 -108.151666 104 31320ft 510kts
05-May-18 16:39 40.077576 -107.973559 106 31251ft 510kts
05-May-18 16:40 40.003582 -107.818254 129 28015ft 508kts
05-May-18 16:41 39.918742 -107.677872 128 22812ft 486kts
05-May-18 16:42 39.839604 -107.547167 128 18055ft 457kts
05-May-18 16:43 39.764380 -107.423464 128 17099ft 434kts
05-May-18 16:44 39.692850 -107.306375 128 16676ft 426kts
05-May-18 16:45 39.629768 -107.203253 128 15603ft 329kts
05-May-18 16:46 39.561731 -107.140107 149 14038ft 300kts
05-May-18 16:47 39.495800 -107.084923 147 12502ft 269kts
05-May-18 16:48 39.438949 -107.045234 156 11821ft 202kts
05-May-18 16:49 39.398485 -107.015449 141 11193ft 162kts
05-May-18 16:50 39.363782 -106.979876 139 10168ft 161kts
05-May-18 16:51 39.327900 -106.948030 141 8966ft 155kts
05-May-18 16:52 39.295797 -106.912566 134 8668ft 155kts
05-May-18 16:53 39.257948 -106.886099 156 8095ft 157kts
05-May-18 16:54 39.223477 -106.868891 159 7739ft 51kts
05-May-18 16:55 39.220907 -106.866043 43 7766ft 6kts
05-May-18 16:56 39.221106 -106.865841 38 7765ft 0kts
05-May-18 16:57 39.221106 -106.865841 38 7765ft 0kts

Navigation Log

Ident Type
Flight plan parsing failed, navigation log unavailable